Aérodrome :
LOGIN :

S'inscrire | Disclaimer

   EN    FR    IT 

 










Légende :    VFR   VFR Marginal   IFR   IFR Intensif   IFR Très Intensif
Visi : 
Plafond : 
>= 8 km
>= 3000ft
5 à 8 km
1000 à 3000 ft
1500m à 5 km
500 à 1000 ft
800 à 1500m
200 à 500 ft
< 800m
< 200 ft
Symboles :   Orages  Brouillard  Fortes neiges  Fortes précipitations  Vent > 20 kt
SIGMETs :   Divers  Orages  Givrage  Turbulence  Onde Orograph.  Cendres Volcan.






- Altitude de l'aérodrome : 147 ft
- Code IATA : DUS


EDDL - Düsseldorf Int.

DERNIER METAR :
  • 240150Z 15006KT 120V190 9999 BKN009 01/M01 Q1025 NOSIG

METARs EXPIRÉS :
  • 240120Z 16007KT 9999 BKN009 01/M01 Q1025 NOSIG
  • 240050Z 15008KT 9999 BKN009 00/M01 Q1025 NOSIG
  • 240020Z 14003KT 090V190 9999 FEW012 M01/M01 Q1025 TEMPO BKN012
  • 232350Z 11003KT 9999 FEW012 M01/M02 Q1026 TEMPO BKN012
  • 232320Z 13002KT 9999 FEW012 M01/M01 Q1026 TEMPO BKN012

TAF TAF EDDL
Valide du 24 à 00h jusqu'au 25 à 06h UTC


232300Z 2400/2506 13005KT 9999 SCT013
BECMG 2400/2403 BKN012
TEMPO 2401/2410 3000 BR BKN009
TEMPO 2410/2420 BKN015
PROB30
TEMPO 2418/2506 3500 BR BKN008



MET'MAP, la Météo Aéronautique d'un coup d'oeil ! - Copyright ORBIFLY Décembre 2007 - Disclaimer

ORBIFLY MET'MAP TEAM :

Programmation & Développement : Alexandra Zaïnal
Sur une idée originale de : Baudouin d'Aumeries
Assistance à la programmation : Marc-Olivier Méhu
Soutien technique & logistique : Manuel Goepfert

Contact : metmap@orbifly.com




SOURCES & CREDITS :

   NOAA